sensor_id;sensor_type;location;lat;lon;timestamp;pressure;altitude;pressure_sealevel;temperature;humidity
47706;BME280;33471;52.104;1.318;2022-12-29T00:00:25;99050.01;;;8.26;59.21
47706;BME280;33471;52.104;1.318;2022-12-29T00:02:52;99040.25;;;8.96;60.16
47706;BME280;33471;52.104;1.318;2022-12-29T00:05:20;99048.74;;;8.84;59.75
47706;BME280;33471;52.104;1.318;2022-12-29T00:07:47;99045.95;;;8.82;60.68
47706;BME280;33471;52.104;1.318;2022-12-29T00:10:14;99039.01;;;8.68;60.65
47706;BME280;33471;52.104;1.318;2022-12-29T00:12:41;99034.18;;;8.71;59.28
47706;BME280;33471;52.104;1.318;2022-12-29T00:15:08;99033.88;;;7.56;59.80
47706;BME280;33471;52.104;1.318;2022-12-29T00:17:35;99028.71;;;8.27;60.60
47706;BME280;33471;52.104;1.318;2022-12-29T00:20:04;99027.17;;;8.96;58.31
47706;BME280;33471;52.104;1.318;2022-12-29T00:22:31;99030.11;;;9.12;59.88
47706;BME280;33471;52.104;1.318;2022-12-29T00:24:59;99046.84;;;8.91;59.83
47706;BME280;33471;52.104;1.318;2022-12-29T00:27:27;99039.55;;;8.22;61.20
47706;BME280;33471;52.104;1.318;2022-12-29T00:29:55;99029.87;;;8.57;60.24
47706;BME280;33471;52.104;1.318;2022-12-29T00:32:22;99031.41;;;8.80;60.41
47706;BME280;33471;52.104;1.318;2022-12-29T00:34:52;99031.97;;;8.86;59.56
47706;BME280;33471;52.104;1.318;2022-12-29T00:37:19;99031.24;;;8.33;61.12
47706;BME280;33471;52.104;1.318;2022-12-29T00:39:47;99035.48;;;8.09;60.43
47706;BME280;33471;52.104;1.318;2022-12-29T00:42:14;99033.69;;;8.38;60.83
47706;BME280;33471;52.104;1.318;2022-12-29T00:44:41;99033.72;;;7.75;61.06
47706;BME280;33471;52.104;1.318;2022-12-29T00:47:09;99025.26;;;7.75;63.08
47706;BME280;33471;52.104;1.318;2022-12-29T00:49:42;99038.40;;;8.17;61.65
47706;BME280;33471;52.104;1.318;2022-12-29T00:52:11;99033.35;;;8.09;62.54
47706;BME280;33471;52.104;1.318;2022-12-29T00:54:40;99033.14;;;8.35;61.07
47706;BME280;33471;52.104;1.318;2022-12-29T00:57:09;99037.81;;;7.92;61.83
47706;BME280;33471;52.104;1.318;2022-12-29T00:59:39;99035.76;;;8.45;59.57
47706;BME280;33471;52.104;1.318;2022-12-29T01:02:07;99036.36;;;8.70;60.27
47706;BME280;33471;52.104;1.318;2022-12-29T01:04:34;99029.27;;;8.37;62.71
47706;BME280;33471;52.104;1.318;2022-12-29T01:07:02;99033.02;;;7.90;62.75
47706;BME280;33471;52.104;1.318;2022-12-29T01:09:30;99049.57;;;8.17;63.69
47706;BME280;33471;52.104;1.318;2022-12-29T01:11:58;99046.49;;;7.70;63.99
47706;BME280;33471;52.104;1.318;2022-12-29T01:14:26;99035.10;;;8.45;62.30
47706;BME280;33471;52.104;1.318;2022-12-29T01:16:53;99033.88;;;8.11;62.48
47706;BME280;33471;52.104;1.318;2022-12-29T01:19:21;99025.33;;;8.94;61.55
47706;BME280;33471;52.104;1.318;2022-12-29T01:21:49;99026.27;;;8.02;61.63
47706;BME280;33471;52.104;1.318;2022-12-29T01:24:17;99021.71;;;8.78;60.00
47706;BME280;33471;52.104;1.318;2022-12-29T01:26:46;99024.81;;;7.86;60.69
47706;BME280;33471;52.104;1.318;2022-12-29T01:29:14;99022.93;;;8.38;60.48
47706;BME280;33471;52.104;1.318;2022-12-29T01:31:41;99021.16;;;8.45;61.21
47706;BME280;33471;52.104;1.318;2022-12-29T01:34:08;99024.44;;;8.28;61.58
47706;BME280;33471;52.104;1.318;2022-12-29T01:36:36;99030.06;;;8.02;63.51
47706;BME280;33471;52.104;1.318;2022-12-29T01:39:04;99030.86;;;8.26;63.44
47706;BME280;33471;52.104;1.318;2022-12-29T01:41:32;99026.35;;;8.26;63.15
47706;BME280;33471;52.104;1.318;2022-12-29T01:43:59;99036.18;;;7.43;63.60
47706;BME280;33471;52.104;1.318;2022-12-29T01:46:31;99036.35;;;8.71;60.55
47706;BME280;33471;52.104;1.318;2022-12-29T01:49:04;99031.86;;;8.27;60.91
47706;BME280;33471;52.104;1.318;2022-12-29T01:51:35;99026.27;;;8.43;60.97
47706;BME280;33471;52.104;1.318;2022-12-29T01:54:05;99025.07;;;9.31;59.13
47706;BME280;33471;52.104;1.318;2022-12-29T01:56:36;99023.38;;;8.77;59.54
47706;BME280;33471;52.104;1.318;2022-12-29T01:59:07;99027.20;;;8.48;59.93
47706;BME280;33471;52.104;1.318;2022-12-29T02:01:37;99023.88;;;8.34;59.92
47706;BME280;33471;52.104;1.318;2022-12-29T02:04:04;99014.78;;;9.30;57.21
47706;BME280;33471;52.104;1.318;2022-12-29T02:06:35;99010.45;;;9.48;57.74
47706;BME280;33471;52.104;1.318;2022-12-29T02:09:04;99011.78;;;8.60;59.93
47706;BME280;33471;52.104;1.318;2022-12-29T02:11:32;99007.94;;;9.11;58.49
47706;BME280;33471;52.104;1.318;2022-12-29T02:14:00;99019.43;;;8.49;58.61
47706;BME280;33471;52.104;1.318;2022-12-29T02:16:37;99017.61;;;9.18;58.58
47706;BME280;33471;52.104;1.318;2022-12-29T02:20:21;99020.58;;;9.46;58.81
47706;BME280;33471;52.104;1.318;2022-12-29T02:23:11;99010.84;;;9.06;57.22
47706;BME280;33471;52.104;1.318;2022-12-29T02:26:04;99012.01;;;9.26;57.04
47706;BME280;33471;52.104;1.318;2022-12-29T02:28:53;99011.01;;;9.91;55.77
47706;BME280;33471;52.104;1.318;2022-12-29T02:31:30;99012.51;;;8.97;57.02
47706;BME280;33471;52.104;1.318;2022-12-29T02:34:08;99025.60;;;8.65;58.28
47706;BME280;33471;52.104;1.318;2022-12-29T02:36:42;99030.31;;;8.45;60.34
47706;BME280;33471;52.104;1.318;2022-12-29T02:39:18;99026.17;;;8.52;59.44
47706;BME280;33471;52.104;1.318;2022-12-29T02:41:56;99027.78;;;7.97;60.57
47706;BME280;33471;52.104;1.318;2022-12-29T02:44:31;99026.81;;;8.97;58.26
47706;BME280;33471;52.104;1.318;2022-12-29T02:47:08;99025.71;;;8.22;58.50
47706;BME280;33471;52.104;1.318;2022-12-29T02:49:44;99031.65;;;8.87;57.80
47706;BME280;33471;52.104;1.318;2022-12-29T02:52:19;99028.02;;;7.85;59.65
47706;BME280;33471;52.104;1.318;2022-12-29T02:54:49;99023.61;;;8.31;59.31
47706;BME280;33471;52.104;1.318;2022-12-29T02:57:29;99012.95;;;8.27;58.19
47706;BME280;33471;52.104;1.318;2022-12-29T03:00:00;99015.21;;;7.90;57.75
47706;BME280;33471;52.104;1.318;2022-12-29T03:02:39;99018.52;;;8.16;57.84
47706;BME280;33471;52.104;1.318;2022-12-29T03:05:20;99018.23;;;7.97;58.71
47706;BME280;33471;52.104;1.318;2022-12-29T03:07:55;99018.03;;;8.35;57.10
47706;BME280;33471;52.104;1.318;2022-12-29T03:10:36;99017.56;;;8.15;57.72
47706;BME280;33471;52.104;1.318;2022-12-29T03:13:15;99019.04;;;8.06;57.35
47706;BME280;33471;52.104;1.318;2022-12-29T03:15:53;99019.89;;;6.80;59.22
47706;BME280;33471;52.104;1.318;2022-12-29T03:18:24;99015.90;;;7.81;58.60
47706;BME280;33471;52.104;1.318;2022-12-29T03:21:00;99013.72;;;7.64;57.79
47706;BME280;33471;52.104;1.318;2022-12-29T03:23:31;99016.75;;;8.57;55.33
47706;BME280;33471;52.104;1.318;2022-12-29T03:26:03;98995.04;;;7.65;58.11
47706;BME280;33471;52.104;1.318;2022-12-29T03:28:36;99008.96;;;7.81;57.46
47706;BME280;33471;52.104;1.318;2022-12-29T03:31:07;99011.58;;;8.01;55.27
47706;BME280;33471;52.104;1.318;2022-12-29T03:33:37;99015.56;;;8.72;54.10
47706;BME280;33471;52.104;1.318;2022-12-29T03:36:10;99007.35;;;7.87;55.42
47706;BME280;33471;52.104;1.318;2022-12-29T03:38:43;98995.95;;;7.20;57.08
47706;BME280;33471;52.104;1.318;2022-12-29T03:41:13;99003.24;;;7.71;56.04
47706;BME280;33471;52.104;1.318;2022-12-29T03:43:42;99003.82;;;7.55;55.71
47706;BME280;33471;52.104;1.318;2022-12-29T03:46:10;98998.61;;;7.82;55.94
47706;BME280;33471;52.104;1.318;2022-12-29T03:48:37;99008.41;;;7.45;57.68
47706;BME280;33471;52.104;1.318;2022-12-29T03:51:05;99013.40;;;7.63;56.31
47706;BME280;33471;52.104;1.318;2022-12-29T03:53:32;99005.61;;;7.99;56.35
47706;BME280;33471;52.104;1.318;2022-12-29T03:56:02;98996.39;;;7.45;56.71
47706;BME280;33471;52.104;1.318;2022-12-29T03:58:30;99005.75;;;7.38;56.75
47706;BME280;33471;52.104;1.318;2022-12-29T04:00:57;98995.64;;;7.50;56.48
47706;BME280;33471;52.104;1.318;2022-12-29T04:03:25;98998.74;;;8.35;55.03
47706;BME280;33471;52.104;1.318;2022-12-29T04:05:52;99009.23;;;8.56;53.51
47706;BME280;33471;52.104;1.318;2022-12-29T04:08:19;99019.17;;;8.20;55.31
47706;BME280;33471;52.104;1.318;2022-12-29T04:10:48;99021.04;;;7.54;56.99
47706;BME280;33471;52.104;1.318;2022-12-29T04:13:15;99021.22;;;8.35;55.25
47706;BME280;33471;52.104;1.318;2022-12-29T04:15:43;99023.63;;;7.77;55.04
47706;BME280;33471;52.104;1.318;2022-12-29T04:18:11;99029.44;;;9.12;52.84
47706;BME280;33471;52.104;1.318;2022-12-29T04:20:38;99030.03;;;8.71;54.58
47706;BME280;33471;52.104;1.318;2022-12-29T04:23:06;99034.07;;;8.63;54.30
47706;BME280;33471;52.104;1.318;2022-12-29T04:25:34;99029.55;;;7.69;56.19
47706;BME280;33471;52.104;1.318;2022-12-29T04:28:01;99030.10;;;8.02;55.26
47706;BME280;33471;52.104;1.318;2022-12-29T04:30:29;99031.10;;;7.54;56.55
47706;BME280;33471;52.104;1.318;2022-12-29T04:32:55;99024.76;;;7.82;56.43
47706;BME280;33471;52.104;1.318;2022-12-29T04:35:22;99039.56;;;8.30;55.57
47706;BME280;33471;52.104;1.318;2022-12-29T04:37:50;99035.74;;;7.50;56.18
47706;BME280;33471;52.104;1.318;2022-12-29T04:40:17;99027.55;;;7.46;57.33
47706;BME280;33471;52.104;1.318;2022-12-29T04:42:44;99027.51;;;7.65;56.53
47706;BME280;33471;52.104;1.318;2022-12-29T04:45:11;99021.89;;;8.38;54.96
47706;BME280;33471;52.104;1.318;2022-12-29T04:47:39;99021.34;;;8.69;54.80
47706;BME280;33471;52.104;1.318;2022-12-29T04:50:07;99013.58;;;8.93;54.02
47706;BME280;33471;52.104;1.318;2022-12-29T04:52:35;99020.55;;;8.64;54.71
47706;BME280;33471;52.104;1.318;2022-12-29T04:55:03;99025.79;;;8.76;54.58
47706;BME280;33471;52.104;1.318;2022-12-29T04:57:31;99032.68;;;8.44;55.34
47706;BME280;33471;52.104;1.318;2022-12-29T04:59:58;99032.78;;;8.37;55.91
47706;BME280;33471;52.104;1.318;2022-12-29T05:02:26;99038.25;;;8.23;56.24
47706;BME280;33471;52.104;1.318;2022-12-29T05:04:53;99035.19;;;8.69;55.09
47706;BME280;33471;52.104;1.318;2022-12-29T05:07:20;99032.30;;;8.23;56.17
47706;BME280;33471;52.104;1.318;2022-12-29T05:09:47;99043.64;;;8.41;54.30
47706;BME280;33471;52.104;1.318;2022-12-29T05:12:14;99033.15;;;8.08;56.00
47706;BME280;33471;52.104;1.318;2022-12-29T05:14:42;99035.23;;;8.05;54.30
47706;BME280;33471;52.104;1.318;2022-12-29T05:17:10;99035.12;;;8.39;54.22
47706;BME280;33471;52.104;1.318;2022-12-29T05:19:38;99037.02;;;8.42;56.17
47706;BME280;33471;52.104;1.318;2022-12-29T05:22:05;99038.98;;;8.12;55.59
47706;BME280;33471;52.104;1.318;2022-12-29T05:24:32;99035.62;;;8.45;56.08
47706;BME280;33471;52.104;1.318;2022-12-29T05:26:59;99040.85;;;8.37;55.61
47706;BME280;33471;52.104;1.318;2022-12-29T05:29:27;99033.56;;;8.78;54.90
47706;BME280;33471;52.104;1.318;2022-12-29T05:31:54;99045.41;;;7.88;56.18
47706;BME280;33471;52.104;1.318;2022-12-29T05:34:21;99051.61;;;9.03;54.92
47706;BME280;33471;52.104;1.318;2022-12-29T05:36:48;99056.79;;;7.97;54.85
47706;BME280;33471;52.104;1.318;2022-12-29T05:39:16;99050.86;;;8.46;54.86
47706;BME280;33471;52.104;1.318;2022-12-29T05:41:43;99049.40;;;8.52;54.06
47706;BME280;33471;52.104;1.318;2022-12-29T05:44:11;99052.96;;;9.62;53.71
47706;BME280;33471;52.104;1.318;2022-12-29T05:46:39;99047.98;;;9.45;53.21
47706;BME280;33471;52.104;1.318;2022-12-29T05:49:13;99061.04;;;9.01;54.29
47706;BME280;33471;52.104;1.318;2022-12-29T05:51:41;99063.73;;;9.00;53.35
47706;BME280;33471;52.104;1.318;2022-12-29T05:54:08;99063.34;;;9.53;53.55
47706;BME280;33471;52.104;1.318;2022-12-29T05:56:35;99076.40;;;9.77;52.80
47706;BME280;33471;52.104;1.318;2022-12-29T05:59:02;99090.05;;;8.68;56.30
47706;BME280;33471;52.104;1.318;2022-12-29T06:01:29;99097.63;;;9.19;56.04
47706;BME280;33471;52.104;1.318;2022-12-29T06:03:57;99100.07;;;8.50;58.87
47706;BME280;33471;52.104;1.318;2022-12-29T06:06:24;99107.55;;;8.05;60.49
47706;BME280;33471;52.104;1.318;2022-12-29T06:08:52;99118.59;;;7.96;61.44
47706;BME280;33471;52.104;1.318;2022-12-29T06:11:19;99119.76;;;8.57;61.92
47706;BME280;33471;52.104;1.318;2022-12-29T06:13:46;99130.18;;;7.84;61.14
47706;BME280;33471;52.104;1.318;2022-12-29T06:16:13;99125.88;;;7.74;61.69
47706;BME280;33471;52.104;1.318;2022-12-29T06:18:40;99131.44;;;7.93;62.39
47706;BME280;33471;52.104;1.318;2022-12-29T06:21:07;99140.66;;;7.49;63.16
47706;BME280;33471;52.104;1.318;2022-12-29T06:23:34;99150.88;;;8.41;61.44
47706;BME280;33471;52.104;1.318;2022-12-29T06:26:01;99154.30;;;8.10;61.64
47706;BME280;33471;52.104;1.318;2022-12-29T06:28:29;99167.61;;;7.81;63.59
47706;BME280;33471;52.104;1.318;2022-12-29T06:30:56;99166.92;;;7.43;65.02
47706;BME280;33471;52.104;1.318;2022-12-29T06:33:23;99163.28;;;7.89;63.76
47706;BME280;33471;52.104;1.318;2022-12-29T06:35:50;99173.57;;;7.05;63.48
47706;BME280;33471;52.104;1.318;2022-12-29T06:38:18;99183.12;;;7.61;63.93
47706;BME280;33471;52.104;1.318;2022-12-29T06:40:45;99190.98;;;7.36;62.94
47706;BME280;33471;52.104;1.318;2022-12-29T06:43:12;99192.61;;;7.72;62.84
47706;BME280;33471;52.104;1.318;2022-12-29T06:45:40;99213.86;;;8.06;62.57
47706;BME280;33471;52.104;1.318;2022-12-29T06:48:07;99214.13;;;7.79;61.71
47706;BME280;33471;52.104;1.318;2022-12-29T06:50:35;99230.25;;;7.96;61.68
47706;BME280;33471;52.104;1.318;2022-12-29T06:53:03;99235.23;;;7.06;63.02
47706;BME280;33471;52.104;1.318;2022-12-29T06:55:30;99241.22;;;7.26;62.13
47706;BME280;33471;52.104;1.318;2022-12-29T06:57:59;99245.29;;;6.67;63.60
47706;BME280;33471;52.104;1.318;2022-12-29T07:00:27;99253.46;;;7.21;63.02
47706;BME280;33471;52.104;1.318;2022-12-29T07:02:55;99254.69;;;7.25;61.75
47706;BME280;33471;52.104;1.318;2022-12-29T07:05:22;99262.49;;;7.31;62.22
47706;BME280;33471;52.104;1.318;2022-12-29T07:07:50;99262.35;;;6.93;60.39
47706;BME280;33471;52.104;1.318;2022-12-29T07:10:17;99270.15;;;8.08;59.35
47706;BME280;33471;52.104;1.318;2022-12-29T07:12:45;99272.12;;;8.03;59.13
47706;BME280;33471;52.104;1.318;2022-12-29T07:15:12;99280.86;;;7.65;59.75
47706;BME280;33471;52.104;1.318;2022-12-29T07:17:40;99287.61;;;8.10;59.15
47706;BME280;33471;52.104;1.318;2022-12-29T07:20:08;99293.84;;;7.54;60.18
47706;BME280;33471;52.104;1.318;2022-12-29T07:22:35;99290.27;;;8.60;57.32
47706;BME280;33471;52.104;1.318;2022-12-29T07:25:03;99293.57;;;8.31;57.15
47706;BME280;33471;52.104;1.318;2022-12-29T07:27:30;99297.95;;;8.67;56.34
47706;BME280;33471;52.104;1.318;2022-12-29T07:29:58;99294.94;;;7.86;56.82
47706;BME280;33471;52.104;1.318;2022-12-29T07:32:25;99305.19;;;7.78;57.88
47706;BME280;33471;52.104;1.318;2022-12-29T07:34:52;99318.42;;;7.20;56.65
47706;BME280;33471;52.104;1.318;2022-12-29T07:37:19;99326.15;;;8.05;57.50
47706;BME280;33471;52.104;1.318;2022-12-29T07:39:47;99336.60;;;7.08;57.27
47706;BME280;33471;52.104;1.318;2022-12-29T07:42:15;99351.29;;;8.17;56.57
47706;BME280;33471;52.104;1.318;2022-12-29T07:44:43;99362.15;;;7.78;56.75
47706;BME280;33471;52.104;1.318;2022-12-29T07:47:10;99372.38;;;8.18;56.43
47706;BME280;33471;52.104;1.318;2022-12-29T07:49:38;99382.68;;;8.39;55.75
47706;BME280;33471;52.104;1.318;2022-12-29T07:52:05;99387.80;;;8.04;55.79
47706;BME280;33471;52.104;1.318;2022-12-29T07:54:32;99392.08;;;7.76;56.73
47706;BME280;33471;52.104;1.318;2022-12-29T07:56:59;99400.18;;;8.32;54.13
47706;BME280;33471;52.104;1.318;2022-12-29T07:59:26;99401.44;;;8.03;55.79
47706;BME280;33471;52.104;1.318;2022-12-29T08:01:53;99411.07;;;8.72;54.38
47706;BME280;33471;52.104;1.318;2022-12-29T08:04:20;99414.00;;;8.83;53.37
47706;BME280;33471;52.104;1.318;2022-12-29T08:06:47;99417.77;;;8.14;53.83
47706;BME280;33471;52.104;1.318;2022-12-29T08:09:14;99423.53;;;8.12;54.99
47706;BME280;33471;52.104;1.318;2022-12-29T08:11:42;99427.48;;;8.74;52.72
47706;BME280;33471;52.104;1.318;2022-12-29T08:14:09;99428.28;;;9.04;52.67
47706;BME280;33471;52.104;1.318;2022-12-29T08:16:37;99430.63;;;9.26;52.16
47706;BME280;33471;52.104;1.318;2022-12-29T08:19:04;99432.23;;;8.49;54.46
47706;BME280;33471;52.104;1.318;2022-12-29T08:21:33;99432.49;;;8.69;53.59
47706;BME280;33471;52.104;1.318;2022-12-29T08:24:00;99441.65;;;8.18;54.81
47706;BME280;33471;52.104;1.318;2022-12-29T08:26:28;99443.46;;;8.85;53.06
47706;BME280;33471;52.104;1.318;2022-12-29T08:28:55;99448.29;;;8.28;53.96
47706;BME280;33471;52.104;1.318;2022-12-29T08:31:22;99456.76;;;8.66;53.76
47706;BME280;33471;52.104;1.318;2022-12-29T08:33:50;99462.34;;;7.16;56.35
47706;BME280;33471;52.104;1.318;2022-12-29T08:36:17;99460.29;;;7.99;55.47
47706;BME280;33471;52.104;1.318;2022-12-29T08:38:44;99466.58;;;7.94;54.75
47706;BME280;33471;52.104;1.318;2022-12-29T08:41:12;99476.38;;;8.11;54.70
47706;BME280;33471;52.104;1.318;2022-12-29T08:43:39;99473.38;;;8.12;54.91
47706;BME280;33471;52.104;1.318;2022-12-29T08:46:06;99475.04;;;8.08;54.50
47706;BME280;33471;52.104;1.318;2022-12-29T08:48:33;99482.80;;;7.38;56.69
47706;BME280;33471;52.104;1.318;2022-12-29T08:51:00;99490.94;;;7.10;56.90
47706;BME280;33471;52.104;1.318;2022-12-29T08:53:27;99492.03;;;7.96;56.24
47706;BME280;33471;52.104;1.318;2022-12-29T08:55:58;99499.73;;;6.12;59.37
47706;BME280;33471;52.104;1.318;2022-12-29T08:58:26;99501.79;;;7.30;58.39
47706;BME280;33471;52.104;1.318;2022-12-29T09:00:54;99503.83;;;6.53;58.14
47706;BME280;33471;52.104;1.318;2022-12-29T09:03:21;99511.60;;;6.44;59.09
47706;BME280;33471;52.104;1.318;2022-12-29T09:05:49;99513.74;;;6.40;57.62
47706;BME280;33471;52.104;1.318;2022-12-29T09:08:17;99524.80;;;7.23;57.27
47706;BME280;33471;52.104;1.318;2022-12-29T09:10:45;99530.20;;;6.55;58.24
47706;BME280;33471;52.104;1.318;2022-12-29T09:13:14;99532.61;;;7.02;58.53
47706;BME280;33471;52.104;1.318;2022-12-29T09:15:42;99534.41;;;7.07;58.61
47706;BME280;33471;52.104;1.318;2022-12-29T09:18:11;99539.79;;;6.85;58.61
47706;BME280;33471;52.104;1.318;2022-12-29T09:20:39;99552.69;;;6.58;59.71
47706;BME280;33471;52.104;1.318;2022-12-29T09:23:06;99557.57;;;5.91;61.06
47706;BME280;33471;52.104;1.318;2022-12-29T09:25:33;99560.07;;;6.46;60.00
47706;BME280;33471;52.104;1.318;2022-12-29T09:28:01;99563.26;;;6.93;58.52
47706;BME280;33471;52.104;1.318;2022-12-29T09:30:28;99563.62;;;7.02;58.55
47706;BME280;33471;52.104;1.318;2022-12-29T09:32:55;99570.33;;;7.08;58.24
47706;BME280;33471;52.104;1.318;2022-12-29T09:35:22;99578.20;;;7.00;58.73
47706;BME280;33471;52.104;1.318;2022-12-29T09:37:49;99582.21;;;6.36;59.10
47706;BME280;33471;52.104;1.318;2022-12-29T09:40:24;99582.90;;;7.12;58.69
47706;BME280;33471;52.104;1.318;2022-12-29T09:43:07;99589.11;;;6.77;58.36
47706;BME280;33471;52.104;1.318;2022-12-29T09:45:43;99595.29;;;6.87;59.76
47706;BME280;33471;52.104;1.318;2022-12-29T09:48:16;99595.06;;;7.33;58.67
47706;BME280;33471;52.104;1.318;2022-12-29T09:50:48;99609.22;;;6.99;57.69
47706;BME280;33471;52.104;1.318;2022-12-29T09:53:22;99605.94;;;7.51;57.44
47706;BME280;33471;52.104;1.318;2022-12-29T09:55:54;99609.25;;;7.68;56.08
47706;BME280;33471;52.104;1.318;2022-12-29T09:58:26;99626.29;;;7.96;56.80
47706;BME280;33471;52.104;1.318;2022-12-29T10:01:00;99624.07;;;6.88;57.18
47706;BME280;33471;52.104;1.318;2022-12-29T10:03:41;99632.87;;;6.43;59.68
47706;BME280;33471;52.104;1.318;2022-12-29T10:06:15;99628.24;;;7.08;58.39
47706;BME280;33471;52.104;1.318;2022-12-29T10:08:49;99630.58;;;6.85;59.82
47706;BME280;33471;52.104;1.318;2022-12-29T10:11:32;99638.56;;;6.71;59.38
47706;BME280;33471;52.104;1.318;2022-12-29T10:14:15;99641.77;;;6.59;59.88
47706;BME280;33471;52.104;1.318;2022-12-29T10:16:52;99641.52;;;6.74;60.01
47706;BME280;33471;52.104;1.318;2022-12-29T10:19:33;99642.04;;;7.79;57.18
47706;BME280;33471;52.104;1.318;2022-12-29T10:22:11;99644.62;;;7.69;56.47
47706;BME280;33471;52.104;1.318;2022-12-29T10:24:44;99644.67;;;6.89;58.34
47706;BME280;33471;52.104;1.318;2022-12-29T10:27:14;99643.46;;;7.70;56.60
47706;BME280;33471;52.104;1.318;2022-12-29T10:29:48;99646.43;;;7.35;57.71
47706;BME280;33471;52.104;1.318;2022-12-29T10:32:27;99640.39;;;7.74;57.86
47706;BME280;33471;52.104;1.318;2022-12-29T10:34:58;99642.09;;;7.56;57.01
47706;BME280;33471;52.104;1.318;2022-12-29T10:37:37;99644.02;;;7.25;58.50
47706;BME280;33471;52.104;1.318;2022-12-29T10:40:17;99646.56;;;7.45;58.01
47706;BME280;33471;52.104;1.318;2022-12-29T10:42:49;99656.85;;;7.25;57.19
47706;BME280;33471;52.104;1.318;2022-12-29T10:45:18;99649.91;;;7.20;58.92
47706;BME280;33471;52.104;1.318;2022-12-29T10:47:53;99650.19;;;6.02;59.62
47706;BME280;33471;52.104;1.318;2022-12-29T10:50:24;99651.50;;;6.66;60.33
47706;BME280;33471;52.104;1.318;2022-12-29T10:52:52;99659.28;;;6.34;59.02
47706;BME280;33471;52.104;1.318;2022-12-29T10:55:24;99660.61;;;7.88;57.26
47706;BME280;33471;52.104;1.318;2022-12-29T10:57:52;99662.30;;;7.97;56.27
47706;BME280;33471;52.104;1.318;2022-12-29T11:00:22;99671.41;;;7.39;58.06
47706;BME280;33471;52.104;1.318;2022-12-29T11:03:04;99656.08;;;6.76;59.13
47706;BME280;33471;52.104;1.318;2022-12-29T11:05:36;99668.42;;;7.74;58.42
47706;BME280;33471;52.104;1.318;2022-12-29T11:08:11;99681.51;;;7.70;57.49
47706;BME280;33471;52.104;1.318;2022-12-29T11:10:41;99678.13;;;7.99;57.92
47706;BME280;33471;52.104;1.318;2022-12-29T11:13:15;99678.65;;;7.83;57.00
47706;BME280;33471;52.104;1.318;2022-12-29T11:15:45;99677.91;;;7.17;58.75
47706;BME280;33471;52.104;1.318;2022-12-29T11:18:22;99681.78;;;7.58;57.88
47706;BME280;33471;52.104;1.318;2022-12-29T11:20:52;99684.20;;;7.66;55.08
47706;BME280;33471;52.104;1.318;2022-12-29T11:23:29;99688.21;;;8.24;57.12
47706;BME280;33471;52.104;1.318;2022-12-29T11:26:30;99693.91;;;8.08;58.35
47706;BME280;33471;52.104;1.318;2022-12-29T11:29:20;99699.13;;;7.39;57.46
47706;BME280;33471;52.104;1.318;2022-12-29T11:31:50;99696.75;;;7.55;56.28
47706;BME280;33471;52.104;1.318;2022-12-29T11:34:21;99699.57;;;8.47;55.49
47706;BME280;33471;52.104;1.318;2022-12-29T11:36:50;99693.19;;;8.66;53.32
47706;BME280;33471;52.104;1.318;2022-12-29T11:39:27;99708.24;;;9.00;53.64
47706;BME280;33471;52.104;1.318;2022-12-29T11:41:57;99708.55;;;7.63;55.15
47706;BME280;33471;52.104;1.318;2022-12-29T11:44:26;99708.37;;;9.05;54.14
47706;BME280;33471;52.104;1.318;2022-12-29T11:46:54;99707.58;;;8.44;55.27
47706;BME280;33471;52.104;1.318;2022-12-29T11:49:23;99714.07;;;8.55;54.87
47706;BME280;33471;52.104;1.318;2022-12-29T11:51:53;99708.92;;;8.73;54.54
47706;BME280;33471;52.104;1.318;2022-12-29T11:54:24;99722.38;;;8.97;53.80
47706;BME280;33471;52.104;1.318;2022-12-29T11:56:54;99717.50;;;8.43;54.91
47706;BME280;33471;52.104;1.318;2022-12-29T11:59:38;99713.82;;;7.95;56.28
47706;BME280;33471;52.104;1.318;2022-12-29T12:02:25;99712.13;;;7.80;55.47
47706;BME280;33471;52.104;1.318;2022-12-29T12:05:00;99721.81;;;7.64;54.51
47706;BME280;33471;52.104;1.318;2022-12-29T12:07:39;99726.23;;;7.94;56.47
47706;BME280;33471;52.104;1.318;2022-12-29T12:10:16;99734.90;;;7.96;56.28
47706;BME280;33471;52.104;1.318;2022-12-29T12:12:50;99730.96;;;7.48;56.94
47706;BME280;33471;52.104;1.318;2022-12-29T12:15:22;99741.31;;;8.29;56.17
47706;BME280;33471;52.104;1.318;2022-12-29T12:17:57;99735.20;;;7.21;55.81
47706;BME280;33471;52.104;1.318;2022-12-29T12:20:42;99740.22;;;7.43;57.01
47706;BME280;33471;52.104;1.318;2022-12-29T12:23:25;99737.54;;;6.74;54.72
47706;BME280;33471;52.104;1.318;2022-12-29T12:25:59;99737.15;;;9.03;52.42
47706;BME280;33471;52.104;1.318;2022-12-29T12:28:37;99745.26;;;7.75;53.98
47706;BME280;33471;52.104;1.318;2022-12-29T12:31:18;99746.29;;;8.95;52.25
47706;BME280;33471;52.104;1.318;2022-12-29T12:33:55;99739.96;;;8.40;52.83
47706;BME280;33471;52.104;1.318;2022-12-29T12:36:39;99738.72;;;7.71;52.62
47706;BME280;33471;52.104;1.318;2022-12-29T12:39:18;99747.56;;;7.51;52.47
47706;BME280;33471;52.104;1.318;2022-12-29T12:41:54;99740.91;;;7.68;53.90
47706;BME280;33471;52.104;1.318;2022-12-29T12:44:31;99737.58;;;7.99;52.89
47706;BME280;33471;52.104;1.318;2022-12-29T12:47:15;99738.69;;;7.89;52.61
47706;BME280;33471;52.104;1.318;2022-12-29T12:50:30;99754.55;;;8.49;52.18
47706;BME280;33471;52.104;1.318;2022-12-29T12:53:13;99751.86;;;7.70;52.84
47706;BME280;33471;52.104;1.318;2022-12-29T12:55:54;99754.38;;;8.19;51.16
47706;BME280;33471;52.104;1.318;2022-12-29T12:58:30;99752.14;;;8.42;50.29
47706;BME280;33471;52.104;1.318;2022-12-29T13:01:14;99750.50;;;8.98;50.05
47706;BME280;33471;52.104;1.318;2022-12-29T13:03:53;99756.99;;;8.49;51.26
47706;BME280;33471;52.104;1.318;2022-12-29T13:06:35;99765.16;;;8.50;50.27
47706;BME280;33471;52.104;1.318;2022-12-29T13:09:29;99755.40;;;8.21;51.74
47706;BME280;33471;52.104;1.318;2022-12-29T13:12:12;99763.83;;;7.91;52.95
47706;BME280;33471;52.104;1.318;2022-12-29T13:14:54;99764.62;;;7.82;52.60
47706;BME280;33471;52.104;1.318;2022-12-29T13:17:28;99768.95;;;7.07;54.64
47706;BME280;33471;52.104;1.318;2022-12-29T13:20:02;99769.31;;;7.55;53.28
47706;BME280;33471;52.104;1.318;2022-12-29T13:22:39;99771.20;;;7.45;52.20
47706;BME280;33471;52.104;1.318;2022-12-29T13:25:22;99763.78;;;7.64;50.75
47706;BME280;33471;52.104;1.318;2022-12-29T13:27:58;99772.07;;;7.37;52.72
47706;BME280;33471;52.104;1.318;2022-12-29T13:30:30;99768.58;;;7.48;51.32